Aérodrome :
LOGIN :

S'inscrire | Disclaimer

   EN    FR    IT 

 










Légende :    VFR   VFR Marginal   IFR   IFR Intensif   IFR Très Intensif
Visi : 
Plafond : 
>= 8 km
>= 3000ft
5 à 8 km
1000 à 3000 ft
1500m à 5 km
500 à 1000 ft
800 à 1500m
200 à 500 ft
< 800m
< 200 ft
Symboles :   Orages  Brouillard  Fortes neiges  Fortes précipitations  Vent > 20 kt
SIGMETs :   Divers  Orages  Givrage  Turbulence  Onde Orograph.  Cendres Volcan.






- Altitude de l'aérodrome : 3 ft
- Code IATA : LWR


EHLW - Leuuwarden Air Base

DERNIER METAR :
  • 280431Z AUTO 19007KT 3800 BR OVC005 04/04 Q1018 YLO

METARs EXPIRÉS :
  • 280404Z AUTO 20007KT 160V230 3900 BR OVC006 04/04 Q1018 YLO
  • 280355Z AUTO 19007KT 160V220 3200 BR OVC007 04/04 Q1018 YLO
  • 280336Z AUTO 19008KT 2600 BR BKN009 OVC010 04/03 Q1018 YLO
  • 280325Z AUTO 19007KT 150V210 2800 BR OVC010 04/03 Q1018 YLO
  • 280255Z AUTO 19008KT 160V220 2800 BR OVC013 04/03 Q1018 YLO
  • 280229Z AUTO 18008KT 150V210 2700 BR FEW002 OVC014 03/03 Q1018 YLO
  • 280225Z AUTO 18008KT 150V210 2600 BR FEW002 SCT003 OVC015 03/03 Q1018 YLO
  • 280208Z AUTO 18008KT 150V210 2300 BR BKN002 BKN003 BKN017 03/03 Q1018 AMB
  • 280155Z AUTO 18008KT 2400 BR BKN001 OVC002 03/02 Q1018 RED
  • 280134Z AUTO 18008KT 140V200 2300 BR BKN001 OVC002 03/02 Q1018 RED
  • 280125Z AUTO 18008KT 2700 BR SCT002 BKN003 OVC041 03/02 Q1018 AMB
  • 280055Z AUTO 18006KT 140V210 2700 BR OVC044 03/02 Q1018 YLO
  • 280025Z AUTO 18007KT 140V220 3200 BR OVC063 03/02 Q1018 YLO
  • 280001Z AUTO 19006KT 4600 BR OVC066 03/02 Q1019 GRN
  • 272355Z AUTO 18006KT 150V210 5000 BR SCT060 OVC068 03/02 Q1019 WHT

TAF TAF EHLW
Valide du 28 à 02h jusqu'au 28 à 14h UTC


280111Z 2802/2814 19006KT 6000 FEW015 BKN030
TEMPO 2802/2806 2500 BR SCT002 BKN005
TEMPO 2806/2810 SCT008 BKN012
PROB40
TEMPO 2810/2818 FEW008 SCT012 BKN020
BECMG 2810/2812 21010KT



MET'MAP, la Météo Aéronautique d'un coup d'oeil ! - Copyright ORBIFLY Décembre 2007 - Disclaimer

ORBIFLY MET'MAP TEAM :

Programmation & Développement : Alexandra Zaïnal
Sur une idée originale de : Baudouin d'Aumeries
Soutien technique & logistique : Manuel Goepfert
Assistance : Marc-Olivier Méhu




SOURCES & CREDITS :

   NOAA